sensor_id;sensor_type;location;lat;lon;timestamp;P1;durP1;ratioP1;P2;durP2;ratioP2
34890;SDS011;21103;51.358;12.412;2022-08-24T00:00:27;15.02;;;4.50;;
34890;SDS011;21103;51.358;12.412;2022-08-24T00:02:53;5.45;;;4.45;;
34890;SDS011;21103;51.358;12.412;2022-08-24T00:05:19;7.63;;;4.35;;
34890;SDS011;21103;51.358;12.412;2022-08-24T00:07:45;5.05;;;4.55;;
34890;SDS011;21103;51.358;12.412;2022-08-24T00:10:11;9.68;;;4.55;;
34890;SDS011;21103;51.358;12.412;2022-08-24T00:12:37;5.03;;;4.07;;
34890;SDS011;21103;51.358;12.412;2022-08-24T00:15:04;5.93;;;4.30;;
34890;SDS011;21103;51.358;12.412;2022-08-24T00:17:32;10.43;;;4.72;;
34890;SDS011;21103;51.358;12.412;2022-08-24T00:19:58;5.35;;;4.45;;
34890;SDS011;21103;51.358;12.412;2022-08-24T00:22:24;8.10;;;4.93;;
34890;SDS011;21103;51.358;12.412;2022-08-24T00:24:49;8.02;;;5.70;;
34890;SDS011;21103;51.358;12.412;2022-08-24T00:27:15;10.95;;;5.35;;
34890;SDS011;21103;51.358;12.412;2022-08-24T00:29:40;7.88;;;5.57;;
34890;SDS011;21103;51.358;12.412;2022-08-24T00:32:06;6.28;;;5.53;;
34890;SDS011;21103;51.358;12.412;2022-08-24T00:34:31;11.35;;;5.07;;
34890;SDS011;21103;51.358;12.412;2022-08-24T00:36:58;6.50;;;5.00;;
34890;SDS011;21103;51.358;12.412;2022-08-24T00:39:23;5.60;;;4.88;;
34890;SDS011;21103;51.358;12.412;2022-08-24T00:41:49;5.03;;;4.53;;
34890;SDS011;21103;51.358;12.412;2022-08-24T00:44:15;5.70;;;4.60;;
34890;SDS011;21103;51.358;12.412;2022-08-24T00:46:56;6.90;;;4.63;;
34890;SDS011;21103;51.358;12.412;2022-08-24T00:49:36;6.75;;;5.15;;
34890;SDS011;21103;51.358;12.412;2022-08-24T00:52:08;5.78;;;4.13;;
34890;SDS011;21103;51.358;12.412;2022-08-24T00:54:39;6.63;;;4.78;;
34890;SDS011;21103;51.358;12.412;2022-08-24T00:57:11;9.40;;;4.85;;
34890;SDS011;21103;51.358;12.412;2022-08-24T00:59:54;7.28;;;5.57;;
34890;SDS011;21103;51.358;12.412;2022-08-24T01:02:27;9.80;;;4.97;;
34890;SDS011;21103;51.358;12.412;2022-08-24T01:04:58;8.27;;;5.05;;
34890;SDS011;21103;51.358;12.412;2022-08-24T01:07:27;9.77;;;4.47;;
34890;SDS011;21103;51.358;12.412;2022-08-24T01:09:54;6.72;;;4.55;;
34890;SDS011;21103;51.358;12.412;2022-08-24T01:12:24;5.45;;;4.70;;
34890;SDS011;21103;51.358;12.412;2022-08-24T01:14:53;6.03;;;4.95;;
34890;SDS011;21103;51.358;12.412;2022-08-24T01:17:21;6.18;;;5.57;;
34890;SDS011;21103;51.358;12.412;2022-08-24T01:20:07;10.07;;;4.88;;
34890;SDS011;21103;51.358;12.412;2022-08-24T01:22:37;9.02;;;5.45;;
34890;SDS011;21103;51.358;12.412;2022-08-24T01:25:13;9.15;;;5.30;;
34890;SDS011;21103;51.358;12.412;2022-08-24T01:27:39;8.15;;;5.70;;
34890;SDS011;21103;51.358;12.412;2022-08-24T01:30:08;6.38;;;5.25;;
34890;SDS011;21103;51.358;12.412;2022-08-24T01:32:36;7.43;;;5.65;;
34890;SDS011;21103;51.358;12.412;2022-08-24T01:35:02;7.88;;;5.85;;
34890;SDS011;21103;51.358;12.412;2022-08-24T01:37:28;9.85;;;5.70;;
34890;SDS011;21103;51.358;12.412;2022-08-24T01:39:55;6.80;;;5.22;;
34890;SDS011;21103;51.358;12.412;2022-08-24T01:42:22;9.02;;;6.53;;
34890;SDS011;21103;51.358;12.412;2022-08-24T01:44:48;9.82;;;6.65;;
34890;SDS011;21103;51.358;12.412;2022-08-24T01:47:14;9.02;;;6.57;;
34890;SDS011;21103;51.358;12.412;2022-08-24T01:49:44;6.90;;;5.60;;
34890;SDS011;21103;51.358;12.412;2022-08-24T01:52:12;8.75;;;6.35;;
34890;SDS011;21103;51.358;12.412;2022-08-24T01:54:44;8.05;;;6.38;;
34890;SDS011;21103;51.358;12.412;2022-08-24T01:57:10;7.13;;;6.07;;
34890;SDS011;21103;51.358;12.412;2022-08-24T01:59:36;8.88;;;6.50;;
34890;SDS011;21103;51.358;12.412;2022-08-24T02:02:04;11.07;;;7.63;;
34890;SDS011;21103;51.358;12.412;2022-08-24T02:04:37;9.82;;;6.68;;
34890;SDS011;21103;51.358;12.412;2022-08-24T02:07:03;13.82;;;8.38;;
34890;SDS011;21103;51.358;12.412;2022-08-24T02:09:29;12.02;;;8.85;;
34890;SDS011;21103;51.358;12.412;2022-08-24T02:11:55;10.63;;;8.77;;
34890;SDS011;21103;51.358;12.412;2022-08-24T02:14:21;13.27;;;9.50;;
34890;SDS011;21103;51.358;12.412;2022-08-24T02:16:46;20.23;;;9.70;;
34890;SDS011;21103;51.358;12.412;2022-08-24T02:19:12;13.45;;;8.80;;
34890;SDS011;21103;51.358;12.412;2022-08-24T02:21:38;9.68;;;8.43;;
34890;SDS011;21103;51.358;12.412;2022-08-24T02:24:04;11.90;;;8.73;;
34890;SDS011;21103;51.358;12.412;2022-08-24T02:26:29;10.93;;;8.55;;
34890;SDS011;21103;51.358;12.412;2022-08-24T02:28:55;13.13;;;8.95;;
34890;SDS011;21103;51.358;12.412;2022-08-24T02:31:20;9.27;;;7.53;;
34890;SDS011;21103;51.358;12.412;2022-08-24T02:33:46;10.43;;;7.82;;
34890;SDS011;21103;51.358;12.412;2022-08-24T02:36:12;9.95;;;8.05;;
34890;SDS011;21103;51.358;12.412;2022-08-24T02:38:38;10.52;;;7.47;;
34890;SDS011;21103;51.358;12.412;2022-08-24T02:41:03;9.15;;;6.82;;
34890;SDS011;21103;51.358;12.412;2022-08-24T02:43:29;9.52;;;7.20;;
34890;SDS011;21103;51.358;12.412;2022-08-24T02:45:55;10.20;;;6.93;;
34890;SDS011;21103;51.358;12.412;2022-08-24T02:48:21;8.55;;;5.82;;
34890;SDS011;21103;51.358;12.412;2022-08-24T02:50:48;13.90;;;6.50;;
34890;SDS011;21103;51.358;12.412;2022-08-24T02:53:15;10.65;;;6.80;;
34890;SDS011;21103;51.358;12.412;2022-08-24T02:55:42;10.35;;;6.85;;
34890;SDS011;21103;51.358;12.412;2022-08-24T02:58:09;8.15;;;6.22;;
34890;SDS011;21103;51.358;12.412;2022-08-24T03:00:36;12.93;;;7.47;;
34890;SDS011;21103;51.358;12.412;2022-08-24T03:03:02;12.00;;;6.95;;
34890;SDS011;21103;51.358;12.412;2022-08-24T03:05:28;8.77;;;7.03;;
34890;SDS011;21103;51.358;12.412;2022-08-24T03:07:54;10.02;;;6.70;;
34890;SDS011;21103;51.358;12.412;2022-08-24T03:10:21;8.75;;;6.20;;
34890;SDS011;21103;51.358;12.412;2022-08-24T03:12:47;9.90;;;5.63;;
34890;SDS011;21103;51.358;12.412;2022-08-24T03:15:14;6.63;;;5.90;;
34890;SDS011;21103;51.358;12.412;2022-08-24T03:17:41;9.05;;;6.50;;
34890;SDS011;21103;51.358;12.412;2022-08-24T03:20:07;16.98;;;6.60;;
34890;SDS011;21103;51.358;12.412;2022-08-24T03:22:36;10.00;;;6.65;;
34890;SDS011;21103;51.358;12.412;2022-08-24T03:25:02;7.05;;;5.90;;
34890;SDS011;21103;51.358;12.412;2022-08-24T03:27:28;7.72;;;6.10;;
34890;SDS011;21103;51.358;12.412;2022-08-24T03:29:54;10.35;;;5.97;;
34890;SDS011;21103;51.358;12.412;2022-08-24T03:32:19;8.23;;;5.85;;
34890;SDS011;21103;51.358;12.412;2022-08-24T03:34:45;7.28;;;5.88;;
34890;SDS011;21103;51.358;12.412;2022-08-24T03:37:10;8.98;;;5.65;;
34890;SDS011;21103;51.358;12.412;2022-08-24T03:39:36;7.18;;;5.55;;
34890;SDS011;21103;51.358;12.412;2022-08-24T03:42:02;8.63;;;4.85;;
34890;SDS011;21103;51.358;12.412;2022-08-24T03:44:28;12.23;;;5.55;;
34890;SDS011;21103;51.358;12.412;2022-08-24T03:46:53;6.80;;;5.28;;
34890;SDS011;21103;51.358;12.412;2022-08-24T03:49:19;9.40;;;6.05;;
34890;SDS011;21103;51.358;12.412;2022-08-24T03:51:45;13.60;;;7.40;;
34890;SDS011;21103;51.358;12.412;2022-08-24T03:54:11;7.70;;;5.30;;
34890;SDS011;21103;51.358;12.412;2022-08-24T03:56:37;8.45;;;5.90;;
34890;SDS011;21103;51.358;12.412;2022-08-24T03:59:04;7.68;;;5.93;;
34890;SDS011;21103;51.358;12.412;2022-08-24T04:01:31;8.23;;;5.30;;
34890;SDS011;21103;51.358;12.412;2022-08-24T04:03:57;9.82;;;5.60;;
34890;SDS011;21103;51.358;12.412;2022-08-24T04:06:23;6.38;;;5.35;;
34890;SDS011;21103;51.358;12.412;2022-08-24T04:08:49;7.60;;;5.60;;
34890;SDS011;21103;51.358;12.412;2022-08-24T04:11:19;10.68;;;5.57;;
34890;SDS011;21103;51.358;12.412;2022-08-24T04:13:47;6.80;;;5.82;;
34890;SDS011;21103;51.358;12.412;2022-08-24T04:16:16;8.27;;;5.63;;
34890;SDS011;21103;51.358;12.412;2022-08-24T04:18:44;7.93;;;5.65;;
34890;SDS011;21103;51.358;12.412;2022-08-24T04:21:20;8.75;;;5.20;;
34890;SDS011;21103;51.358;12.412;2022-08-24T04:23:49;8.15;;;6.00;;
34890;SDS011;21103;51.358;12.412;2022-08-24T04:26:16;7.18;;;5.70;;
34890;SDS011;21103;51.358;12.412;2022-08-24T04:28:43;7.65;;;5.57;;
34890;SDS011;21103;51.358;12.412;2022-08-24T04:31:09;7.10;;;5.95;;
34890;SDS011;21103;51.358;12.412;2022-08-24T04:33:34;7.18;;;4.93;;
34890;SDS011;21103;51.358;12.412;2022-08-24T04:36:00;6.63;;;5.38;;
34890;SDS011;21103;51.358;12.412;2022-08-24T04:38:26;9.70;;;6.30;;
34890;SDS011;21103;51.358;12.412;2022-08-24T04:40:53;6.53;;;5.88;;
34890;SDS011;21103;51.358;12.412;2022-08-24T04:43:19;8.30;;;5.80;;
34890;SDS011;21103;51.358;12.412;2022-08-24T04:45:45;8.30;;;6.25;;
34890;SDS011;21103;51.358;12.412;2022-08-24T04:48:13;9.38;;;6.18;;
34890;SDS011;21103;51.358;12.412;2022-08-24T04:50:40;7.28;;;5.43;;
34890;SDS011;21103;51.358;12.412;2022-08-24T04:53:07;7.85;;;5.68;;
34890;SDS011;21103;51.358;12.412;2022-08-24T04:55:40;6.63;;;4.97;;
34890;SDS011;21103;51.358;12.412;2022-08-24T04:58:08;8.32;;;5.70;;
34890;SDS011;21103;51.358;12.412;2022-08-24T05:00:34;6.50;;;5.75;;
34890;SDS011;21103;51.358;12.412;2022-08-24T05:03:00;6.28;;;5.68;;
34890;SDS011;21103;51.358;12.412;2022-08-24T05:05:25;7.82;;;5.40;;
34890;SDS011;21103;51.358;12.412;2022-08-24T05:07:51;7.18;;;5.60;;
34890;SDS011;21103;51.358;12.412;2022-08-24T05:10:16;8.45;;;5.35;;
34890;SDS011;21103;51.358;12.412;2022-08-24T05:12:42;6.90;;;6.20;;
34890;SDS011;21103;51.358;12.412;2022-08-24T05:15:09;6.90;;;5.50;;
34890;SDS011;21103;51.358;12.412;2022-08-24T05:17:34;9.38;;;5.97;;
34890;SDS011;21103;51.358;12.412;2022-08-24T05:20:00;8.48;;;5.68;;
34890;SDS011;21103;51.358;12.412;2022-08-24T05:22:25;7.85;;;5.75;;
34890;SDS011;21103;51.358;12.412;2022-08-24T05:24:51;8.98;;;6.38;;
34890;SDS011;21103;51.358;12.412;2022-08-24T05:27:16;9.63;;;6.00;;
34890;SDS011;21103;51.358;12.412;2022-08-24T05:29:43;7.75;;;5.97;;
34890;SDS011;21103;51.358;12.412;2022-08-24T05:32:09;10.65;;;6.72;;
34890;SDS011;21103;51.358;12.412;2022-08-24T05:34:35;8.15;;;6.30;;
34890;SDS011;21103;51.358;12.412;2022-08-24T05:37:00;10.55;;;5.70;;
34890;SDS011;21103;51.358;12.412;2022-08-24T05:39:26;8.15;;;5.95;;
34890;SDS011;21103;51.358;12.412;2022-08-24T05:41:52;8.65;;;5.50;;
34890;SDS011;21103;51.358;12.412;2022-08-24T05:44:19;9.73;;;6.00;;
34890;SDS011;21103;51.358;12.412;2022-08-24T05:46:45;8.40;;;6.57;;
34890;SDS011;21103;51.358;12.412;2022-08-24T05:49:11;9.40;;;6.78;;
34890;SDS011;21103;51.358;12.412;2022-08-24T05:51:36;9.68;;;7.88;;
34890;SDS011;21103;51.358;12.412;2022-08-24T05:54:04;13.18;;;9.18;;
34890;SDS011;21103;51.358;12.412;2022-08-24T05:56:30;11.13;;;8.90;;
34890;SDS011;21103;51.358;12.412;2022-08-24T05:58:55;10.07;;;7.90;;
34890;SDS011;21103;51.358;12.412;2022-08-24T06:01:22;11.18;;;8.23;;
34890;SDS011;21103;51.358;12.412;2022-08-24T06:03:50;11.35;;;8.15;;
34890;SDS011;21103;51.358;12.412;2022-08-24T06:06:16;12.70;;;9.40;;
34890;SDS011;21103;51.358;12.412;2022-08-24T06:08:44;16.67;;;10.95;;
34890;SDS011;21103;51.358;12.412;2022-08-24T06:11:22;11.32;;;10.13;;
34890;SDS011;21103;51.358;12.412;2022-08-24T06:13:53;14.27;;;9.50;;
34890;SDS011;21103;51.358;12.412;2022-08-24T06:16:21;11.85;;;9.48;;
34890;SDS011;21103;51.358;12.412;2022-08-24T06:18:48;13.25;;;10.20;;
34890;SDS011;21103;51.358;12.412;2022-08-24T06:21:19;9.75;;;8.32;;
34890;SDS011;21103;51.358;12.412;2022-08-24T06:23:46;10.85;;;9.00;;
34890;SDS011;21103;51.358;12.412;2022-08-24T06:26:12;12.20;;;9.10;;
34890;SDS011;21103;51.358;12.412;2022-08-24T06:28:57;11.13;;;9.13;;
34890;SDS011;21103;51.358;12.412;2022-08-24T06:31:24;11.75;;;9.18;;
34890;SDS011;21103;51.358;12.412;2022-08-24T06:33:51;11.73;;;7.95;;
34890;SDS011;21103;51.358;12.412;2022-08-24T06:36:17;10.45;;;8.82;;
34890;SDS011;21103;51.358;12.412;2022-08-24T06:38:42;14.63;;;8.27;;
34890;SDS011;21103;51.358;12.412;2022-08-24T06:41:08;13.35;;;8.20;;
34890;SDS011;21103;51.358;12.412;2022-08-24T06:43:35;11.32;;;9.27;;
34890;SDS011;21103;51.358;12.412;2022-08-24T06:46:01;13.00;;;7.97;;
34890;SDS011;21103;51.358;12.412;2022-08-24T06:48:26;11.48;;;8.05;;
34890;SDS011;21103;51.358;12.412;2022-08-24T06:50:54;10.93;;;8.30;;
34890;SDS011;21103;51.358;12.412;2022-08-24T06:53:19;8.52;;;7.72;;
34890;SDS011;21103;51.358;12.412;2022-08-24T06:55:52;8.43;;;7.00;;
34890;SDS011;21103;51.358;12.412;2022-08-24T06:58:22;8.93;;;6.50;;
34890;SDS011;21103;51.358;12.412;2022-08-24T07:00:49;8.90;;;7.53;;
34890;SDS011;21103;51.358;12.412;2022-08-24T07:03:15;8.80;;;6.18;;
34890;SDS011;21103;51.358;12.412;2022-08-24T07:05:48;7.97;;;6.43;;
34890;SDS011;21103;51.358;12.412;2022-08-24T07:08:18;7.75;;;5.78;;
34890;SDS011;21103;51.358;12.412;2022-08-24T07:10:44;9.45;;;6.22;;
34890;SDS011;21103;51.358;12.412;2022-08-24T07:13:11;9.98;;;6.45;;
34890;SDS011;21103;51.358;12.412;2022-08-24T07:15:38;8.18;;;5.85;;
34890;SDS011;21103;51.358;12.412;2022-08-24T07:18:13;14.13;;;5.70;;
34890;SDS011;21103;51.358;12.412;2022-08-24T07:20:39;8.27;;;5.22;;
34890;SDS011;21103;51.358;12.412;2022-08-24T07:23:07;7.28;;;5.18;;
34890;SDS011;21103;51.358;12.412;2022-08-24T07:25:34;7.00;;;4.40;;
34890;SDS011;21103;51.358;12.412;2022-08-24T07:28:00;6.82;;;4.97;;
34890;SDS011;21103;51.358;12.412;2022-08-24T07:30:26;11.82;;;7.00;;
34890;SDS011;21103;51.358;12.412;2022-08-24T07:32:52;60.42;;;28.60;;
34890;SDS011;21103;51.358;12.412;2022-08-24T07:35:19;12.43;;;6.63;;
34890;SDS011;21103;51.358;12.412;2022-08-24T07:37:44;5.15;;;3.85;;
34890;SDS011;21103;51.358;12.412;2022-08-24T07:40:10;6.90;;;3.88;;
34890;SDS011;21103;51.358;12.412;2022-08-24T07:42:36;7.35;;;4.63;;
34890;SDS011;21103;51.358;12.412;2022-08-24T07:45:04;8.48;;;5.32;;
34890;SDS011;21103;51.358;12.412;2022-08-24T07:47:30;6.20;;;4.38;;
34890;SDS011;21103;51.358;12.412;2022-08-24T07:49:55;8.75;;;5.13;;
34890;SDS011;21103;51.358;12.412;2022-08-24T07:52:21;10.00;;;3.88;;
34890;SDS011;21103;51.358;12.412;2022-08-24T07:54:48;9.77;;;4.10;;
34890;SDS011;21103;51.358;12.412;2022-08-24T07:57:14;6.18;;;4.18;;
34890;SDS011;21103;51.358;12.412;2022-08-24T07:59:39;8.15;;;3.90;;
34890;SDS011;21103;51.358;12.412;2022-08-24T08:02:05;6.45;;;4.20;;
34890;SDS011;21103;51.358;12.412;2022-08-24T08:04:32;5.50;;;2.92;;
34890;SDS011;21103;51.358;12.412;2022-08-24T08:07:07;10.93;;;3.58;;
34890;SDS011;21103;51.358;12.412;2022-08-24T08:09:41;8.23;;;3.75;;
34890;SDS011;21103;51.358;12.412;2022-08-24T08:12:09;6.82;;;3.53;;
34890;SDS011;21103;51.358;12.412;2022-08-24T08:14:34;8.20;;;3.70;;
34890;SDS011;21103;51.358;12.412;2022-08-24T08:17:04;5.80;;;3.42;;
34890;SDS011;21103;51.358;12.412;2022-08-24T08:19:31;7.40;;;3.35;;
34890;SDS011;21103;51.358;12.412;2022-08-24T08:21:57;4.32;;;2.63;;
34890;SDS011;21103;51.358;12.412;2022-08-24T08:24:43;4.00;;;3.47;;
34890;SDS011;21103;51.358;12.412;2022-08-24T08:27:12;8.38;;;2.88;;
34890;SDS011;21103;51.358;12.412;2022-08-24T08:29:41;5.43;;;2.67;;
34890;SDS011;21103;51.358;12.412;2022-08-24T08:32:08;7.95;;;2.58;;
34890;SDS011;21103;51.358;12.412;2022-08-24T08:34:43;5.53;;;2.45;;
34890;SDS011;21103;51.358;12.412;2022-08-24T08:37:10;10.30;;;2.78;;
34890;SDS011;21103;51.358;12.412;2022-08-24T08:39:39;4.60;;;2.67;;
34890;SDS011;21103;51.358;12.412;2022-08-24T08:48:46;5.90;;;2.88;;
34890;SDS011;21103;51.358;12.412;2022-08-24T09:02:28;7.97;;;2.70;;
34890;SDS011;21103;51.358;12.412;2022-08-24T09:12:14;6.07;;;2.17;;
34890;SDS011;21103;51.358;12.412;2022-08-24T09:35:05;4.70;;;1.90;;
34890;SDS011;21103;51.358;12.412;2022-08-24T09:38:16;3.38;;;1.95;;
34890;SDS011;21103;51.358;12.412;2022-08-24T09:40:50;5.22;;;1.80;;
34890;SDS011;21103;51.358;12.412;2022-08-24T10:01:25;3.50;;;1.48;;
34890;SDS011;21103;51.358;12.412;2022-08-24T10:04:20;2.63;;;1.52;;
34890;SDS011;21103;51.358;12.412;2022-08-24T10:07:10;11.90;;;1.73;;
34890;SDS011;21103;51.358;12.412;2022-08-24T10:15:22;3.10;;;1.70;;
34890;SDS011;21103;51.358;12.412;2022-08-24T10:18:03;4.40;;;1.52;;
34890;SDS011;21103;51.358;12.412;2022-08-24T10:21:04;3.67;;;1.50;;
34890;SDS011;21103;51.358;12.412;2022-08-24T10:24:04;2.30;;;1.20;;
34890;SDS011;21103;51.358;12.412;2022-08-24T10:29:54;5.20;;;1.50;;
34890;SDS011;21103;51.358;12.412;2022-08-24T10:32:50;6.13;;;1.25;;
34890;SDS011;21103;51.358;12.412;2022-08-24T10:35:34;3.42;;;2.08;;
34890;SDS011;21103;51.358;12.412;2022-08-24T10:38:13;5.40;;;1.65;;
34890;SDS011;21103;51.358;12.412;2022-08-24T10:44:08;4.93;;;1.58;;
34890;SDS011;21103;51.358;12.412;2022-08-24T10:46:58;4.63;;;1.55;;
34890;SDS011;21103;51.358;12.412;2022-08-24T10:54:55;2.85;;;1.85;;
34890;SDS011;21103;51.358;12.412;2022-08-24T10:57:37;2.33;;;1.48;;
34890;SDS011;21103;51.358;12.412;2022-08-24T11:00:12;9.32;;;1.33;;
34890;SDS011;21103;51.358;12.412;2022-08-24T11:02:40;3.95;;;1.77;;
34890;SDS011;21103;51.358;12.412;2022-08-24T11:05:12;7.05;;;1.63;;
34890;SDS011;21103;51.358;12.412;2022-08-24T11:08:02;6.75;;;2.30;;
34890;SDS011;21103;51.358;12.412;2022-08-24T11:10:30;3.05;;;1.55;;
34890;SDS011;21103;51.358;12.412;2022-08-24T11:13:21;3.75;;;1.67;;
34890;SDS011;21103;51.358;12.412;2022-08-24T11:15:47;4.75;;;1.60;;
34890;SDS011;21103;51.358;12.412;2022-08-24T11:18:15;4.95;;;1.73;;
34890;SDS011;21103;51.358;12.412;2022-08-24T11:20:42;5.28;;;1.75;;
34890;SDS011;21103;51.358;12.412;2022-08-24T11:25:56;3.83;;;1.45;;
34890;SDS011;21103;51.358;12.412;2022-08-24T11:28:32;2.83;;;1.23;;
34890;SDS011;21103;51.358;12.412;2022-08-24T11:31:08;4.65;;;1.63;;
34890;SDS011;21103;51.358;12.412;2022-08-24T11:33:47;4.13;;;1.90;;
34890;SDS011;21103;51.358;12.412;2022-08-24T11:36:18;5.25;;;1.45;;
34890;SDS011;21103;51.358;12.412;2022-08-24T11:38:45;3.13;;;1.38;;
34890;SDS011;21103;51.358;12.412;2022-08-24T11:44:57;5.35;;;1.50;;
34890;SDS011;21103;51.358;12.412;2022-08-24T11:49:58;4.53;;;1.27;;
34890;SDS011;21103;51.358;12.412;2022-08-24T11:55:23;2.78;;;1.52;;
34890;SDS011;21103;51.358;12.412;2022-08-24T11:57:58;3.33;;;1.52;;
34890;SDS011;21103;51.358;12.412;2022-08-24T12:00:35;7.93;;;1.35;;
34890;SDS011;21103;51.358;12.412;2022-08-24T12:03:16;2.28;;;1.10;;
34890;SDS011;21103;51.358;12.412;2022-08-24T12:11:15;4.93;;;1.30;;
34890;SDS011;21103;51.358;12.412;2022-08-24T12:16:46;1.80;;;1.40;;
34890;SDS011;21103;51.358;12.412;2022-08-24T12:19:33;2.70;;;1.67;;
34890;SDS011;21103;51.358;12.412;2022-08-24T12:22:04;4.40;;;1.05;;
34890;SDS011;21103;51.358;12.412;2022-08-24T12:24:44;2.40;;;1.55;;
34890;SDS011;21103;51.358;12.412;2022-08-24T12:27:16;5.10;;;1.50;;
34890;SDS011;21103;51.358;12.412;2022-08-24T12:30:00;4.32;;;1.30;;
34890;SDS011;21103;51.358;12.412;2022-08-24T12:35:08;2.42;;;1.38;;
34890;SDS011;21103;51.358;12.412;2022-08-24T12:37:46;5.13;;;1.30;;
34890;SDS011;21103;51.358;12.412;2022-08-24T12:40:25;3.75;;;1.33;;
34890;SDS011;21103;51.358;12.412;2022-08-24T12:43:06;5.60;;;1.63;;
34890;SDS011;21103;51.358;12.412;2022-08-24T12:45:36;2.92;;;1.55;;
34890;SDS011;21103;51.358;12.412;2022-08-24T12:48:26;5.10;;;1.52;;
34890;SDS011;21103;51.358;12.412;2022-08-24T12:54:01;3.60;;;1.52;;
34890;SDS011;21103;51.358;12.412;2022-08-24T12:57:02;4.50;;;1.42;;
34890;SDS011;21103;51.358;12.412;2022-08-24T12:59:41;2.17;;;1.15;;
34890;SDS011;21103;51.358;12.412;2022-08-24T13:17:48;2.20;;;1.40;;
34890;SDS011;21103;51.358;12.412;2022-08-24T13:28:26;5.63;;;1.65;;
34890;SDS011;21103;51.358;12.412;2022-08-24T13:31:12;1.83;;;1.10;;
34890;SDS011;21103;51.358;12.412;2022-08-24T13:36:48;1.77;;;0.82;;
34890;SDS011;21103;51.358;12.412;2022-08-24T13:45:14;9.68;;;1.52;;
34890;SDS011;21103;51.358;12.412;2022-08-24T13:48:10;5.10;;;1.30;;
34890;SDS011;21103;51.358;12.412;2022-08-24T13:56:36;3.42;;;1.30;;
34890;SDS011;21103;51.358;12.412;2022-08-24T13:59:15;2.50;;;1.27;;
34890;SDS011;21103;51.358;12.412;2022-08-24T14:04:30;1.92;;;1.17;;
34890;SDS011;21103;51.358;12.412;2022-08-24T14:07:08;3.17;;;1.27;;
34890;SDS011;21103;51.358;12.412;2022-08-24T14:14:58;3.40;;;1.73;;
34890;SDS011;21103;51.358;12.412;2022-08-24T14:17:56;4.38;;;1.20;;
34890;SDS011;21103;51.358;12.412;2022-08-24T14:20:51;2.10;;;0.98;;
34890;SDS011;21103;51.358;12.412;2022-08-24T14:26:48;5.65;;;1.67;;
34890;SDS011;21103;51.358;12.412;2022-08-24T14:29:25;4.15;;;1.63;;
34890;SDS011;21103;51.358;12.412;2022-08-24T14:45:07;4.68;;;1.45;;
34890;SDS011;21103;51.358;12.412;2022-08-24T14:47:57;2.78;;;1.48;;
34890;SDS011;21103;51.358;12.412;2022-08-24T14:50:39;2.40;;;1.23;;
34890;SDS011;21103;51.358;12.412;2022-08-24T14:59:09;4.22;;;1.20;;
34890;SDS011;21103;51.358;12.412;2022-08-24T15:01:42;4.70;;;1.48;;
34890;SDS011;21103;51.358;12.412;2022-08-24T15:09:58;2.28;;;1.38;;
34890;SDS011;21103;51.358;12.412;2022-08-24T15:12:28;5.25;;;1.52;;
34890;SDS011;21103;51.358;12.412;2022-08-24T15:15:03;4.18;;;1.35;;
34890;SDS011;21103;51.358;12.412;2022-08-24T15:17:38;1.88;;;1.35;;
34890;SDS011;21103;51.358;12.412;2022-08-24T15:20:20;2.40;;;1.50;;
34890;SDS011;21103;51.358;12.412;2022-08-24T15:23:02;2.83;;;1.25;;
34890;SDS011;21103;51.358;12.412;2022-08-24T15:25:46;2.90;;;1.50;;
34890;SDS011;21103;51.358;12.412;2022-08-24T15:28:27;5.88;;;1.92;;
34890;SDS011;21103;51.358;12.412;2022-08-24T15:31:00;3.05;;;1.58;;
34890;SDS011;21103;51.358;12.412;2022-08-24T15:33:35;5.00;;;2.00;;
34890;SDS011;21103;51.358;12.412;2022-08-24T15:36:26;3.17;;;1.15;;
34890;SDS011;21103;51.358;12.412;2022-08-24T15:38:54;2.65;;;1.60;;
34890;SDS011;21103;51.358;12.412;2022-08-24T15:41:21;2.45;;;1.40;;
34890;SDS011;21103;51.358;12.412;2022-08-24T15:49:07;6.45;;;1.58;;
34890;SDS011;21103;51.358;12.412;2022-08-24T15:54:14;2.42;;;1.30;;
34890;SDS011;21103;51.358;12.412;2022-08-24T15:56:46;4.40;;;1.35;;
34890;SDS011;21103;51.358;12.412;2022-08-24T15:59:25;4.18;;;1.58;;
34890;SDS011;21103;51.358;12.412;2022-08-24T16:01:54;3.45;;;2.00;;
34890;SDS011;21103;51.358;12.412;2022-08-24T16:04:46;4.93;;;1.70;;
34890;SDS011;21103;51.358;12.412;2022-08-24T16:07:13;4.28;;;2.10;;
34890;SDS011;21103;51.358;12.412;2022-08-24T16:09:46;3.28;;;1.55;;
34890;SDS011;21103;51.358;12.412;2022-08-24T16:12:13;2.83;;;1.35;;
34890;SDS011;21103;51.358;12.412;2022-08-24T16:14:46;4.80;;;1.77;;
34890;SDS011;21103;51.358;12.412;2022-08-24T16:17:19;4.15;;;1.63;;
34890;SDS011;21103;51.358;12.412;2022-08-24T16:19:51;6.68;;;1.63;;
34890;SDS011;21103;51.358;12.412;2022-08-24T16:22:27;15.55;;;1.77;;
34890;SDS011;21103;51.358;12.412;2022-08-24T16:27:50;4.32;;;1.63;;
34890;SDS011;21103;51.358;12.412;2022-08-24T16:30:23;3.78;;;1.63;;
34890;SDS011;21103;51.358;12.412;2022-08-24T16:33:04;6.90;;;1.55;;
34890;SDS011;21103;51.358;12.412;2022-08-24T16:35:29;6.03;;;1.70;;
34890;SDS011;21103;51.358;12.412;2022-08-24T16:37:56;3.78;;;1.30;;
34890;SDS011;21103;51.358;12.412;2022-08-24T16:40:23;4.28;;;1.75;;
34890;SDS011;21103;51.358;12.412;2022-08-24T16:42:48;2.15;;;1.58;;
34890;SDS011;21103;51.358;12.412;2022-08-24T16:45:16;3.20;;;2.05;;
34890;SDS011;21103;51.358;12.412;2022-08-24T16:47:44;4.05;;;1.67;;
34890;SDS011;21103;51.358;12.412;2022-08-24T16:50:11;3.65;;;2.05;;
34890;SDS011;21103;51.358;12.412;2022-08-24T16:52:38;5.63;;;1.08;;
34890;SDS011;21103;51.358;12.412;2022-08-24T16:55:04;2.65;;;1.58;;
34890;SDS011;21103;51.358;12.412;2022-08-24T16:57:31;2.33;;;1.48;;
34890;SDS011;21103;51.358;12.412;2022-08-24T17:00:00;7.07;;;1.30;;
34890;SDS011;21103;51.358;12.412;2022-08-24T17:02:30;2.85;;;1.48;;
34890;SDS011;21103;51.358;12.412;2022-08-24T17:04:55;3.50;;;1.52;;
34890;SDS011;21103;51.358;12.412;2022-08-24T17:07:22;4.25;;;1.73;;
34890;SDS011;21103;51.358;12.412;2022-08-24T17:09:50;2.00;;;1.50;;
34890;SDS011;21103;51.358;12.412;2022-08-24T17:12:16;6.82;;;1.83;;
34890;SDS011;21103;51.358;12.412;2022-08-24T17:14:42;5.00;;;1.73;;
34890;SDS011;21103;51.358;12.412;2022-08-24T17:17:09;4.22;;;1.48;;
34890;SDS011;21103;51.358;12.412;2022-08-24T17:19:37;3.60;;;1.25;;
34890;SDS011;21103;51.358;12.412;2022-08-24T17:22:04;4.65;;;2.10;;
34890;SDS011;21103;51.358;12.412;2022-08-24T17:24:29;5.50;;;2.40;;
34890;SDS011;21103;51.358;12.412;2022-08-24T17:26:55;4.75;;;2.42;;
34890;SDS011;21103;51.358;12.412;2022-08-24T17:29:22;3.72;;;2.33;;
34890;SDS011;21103;51.358;12.412;2022-08-24T17:31:48;2.90;;;1.92;;
34890;SDS011;21103;51.358;12.412;2022-08-24T17:34:14;10.32;;;3.00;;
34890;SDS011;21103;51.358;12.412;2022-08-24T17:36:42;4.50;;;2.40;;
34890;SDS011;21103;51.358;12.412;2022-08-24T17:39:09;4.25;;;2.63;;
34890;SDS011;21103;51.358;12.412;2022-08-24T17:41:36;4.68;;;2.50;;
34890;SDS011;21103;51.358;12.412;2022-08-24T17:44:02;5.07;;;2.65;;
34890;SDS011;21103;51.358;12.412;2022-08-24T17:46:28;4.50;;;2.70;;
34890;SDS011;21103;51.358;12.412;2022-08-24T17:48:55;6.75;;;3.05;;
34890;SDS011;21103;51.358;12.412;2022-08-24T17:51:22;4.72;;;2.88;;
34890;SDS011;21103;51.358;12.412;2022-08-24T17:53:47;4.43;;;3.15;;
34890;SDS011;21103;51.358;12.412;2022-08-24T17:56:13;8.13;;;3.00;;
34890;SDS011;21103;51.358;12.412;2022-08-24T17:58:41;7.03;;;3.20;;
34890;SDS011;21103;51.358;12.412;2022-08-24T18:01:25;3.85;;;2.50;;